createdAt,value
2022-11-16T00:00:10.607Z,6.95
2022-11-16T00:02:38.265Z,7.70
2022-11-16T00:05:06.392Z,9.30
2022-11-16T00:07:39.862Z,10.20
2022-11-16T00:10:07.913Z,9.63
2022-11-16T00:12:35.294Z,8.70
2022-11-16T00:15:03.228Z,7.70
2022-11-16T00:17:30.594Z,8.15
2022-11-16T00:19:58.152Z,11.55
2022-11-16T00:22:25.744Z,7.65
2022-11-16T00:24:53.045Z,8.32
2022-11-16T00:27:20.562Z,8.45
2022-11-16T00:29:48.164Z,6.47
2022-11-16T00:32:16.704Z,8.18
2022-11-16T00:34:44.299Z,5.95
2022-11-16T00:37:12.400Z,6.47
2022-11-16T00:39:39.901Z,8.00
2022-11-16T00:42:07.297Z,6.00
2022-11-16T00:44:34.945Z,7.30
2022-11-16T00:47:02.475Z,6.65
2022-11-16T00:49:29.826Z,6.10
2022-11-16T00:51:57.739Z,6.53
2022-11-16T00:54:25.470Z,6.45
2022-11-16T00:56:54.181Z,6.10
2022-11-16T00:59:22.309Z,6.18
2022-11-16T01:01:51.364Z,5.85
2022-11-16T01:04:19.123Z,6.28
2022-11-16T01:06:49.160Z,6.78
2022-11-16T01:09:16.600Z,6.78
2022-11-16T01:12:02.723Z,6.00
2022-11-16T01:14:31.604Z,6.50
2022-11-16T01:16:59.201Z,6.07
2022-11-16T01:19:27.042Z,5.68
2022-11-16T01:21:54.650Z,6.60
2022-11-16T01:24:22.688Z,4.88
2022-11-16T01:26:49.969Z,5.85
2022-11-16T01:29:19.140Z,7.25
2022-11-16T01:31:53.060Z,4.50
2022-11-16T01:34:21.153Z,4.78
2022-11-16T01:36:50.230Z,5.30
2022-11-16T01:39:19.931Z,6.78
2022-11-16T01:41:52.903Z,4.75
2022-11-16T01:44:34.079Z,4.93
2022-11-16T01:47:11.468Z,5.97
2022-11-16T01:49:46.360Z,6.45
2022-11-16T01:52:58.575Z,6.82
2022-11-16T01:55:30.801Z,6.32
2022-11-16T01:58:25.150Z,6.07
2022-11-16T02:00:58.815Z,5.72
2022-11-16T02:03:42.462Z,5.13
2022-11-16T02:06:13.530Z,5.18
2022-11-16T02:09:45.146Z,5.95
2022-11-16T02:12:30.771Z,5.63
2022-11-16T02:15:20.050Z,5.47
2022-11-16T02:18:27.048Z,4.97
2022-11-16T02:21:20.207Z,4.82
2022-11-16T02:24:14.923Z,5.68
2022-11-16T02:26:58.268Z,6.43
2022-11-16T02:29:32.626Z,4.80
2022-11-16T02:32:08.356Z,5.10
2022-11-16T02:34:43.598Z,6.03
2022-11-16T02:37:18.820Z,5.07
2022-11-16T02:39:51.118Z,7.60
2022-11-16T02:42:26.141Z,4.77
2022-11-16T02:44:59.731Z,5.20
2022-11-16T02:47:32.936Z,5.68
2022-11-16T02:50:10.017Z,5.28
2022-11-16T02:52:38.861Z,5.18
2022-11-16T02:55:09.276Z,4.07
2022-11-16T02:57:39.391Z,5.80
2022-11-16T03:00:17.894Z,4.93
2022-11-16T03:03:10.587Z,5.60
2022-11-16T03:08:26.349Z,5.15
2022-11-16T03:11:19.972Z,5.85
2022-11-16T03:13:49.435Z,4.70
2022-11-16T03:16:24.780Z,5.15
2022-11-16T03:18:55.101Z,4.68
2022-11-16T03:21:57.865Z,5.55
2022-11-16T03:24:25.794Z,4.75
2022-11-16T03:27:06.883Z,4.70
2022-11-16T03:29:54.841Z,5.07
2022-11-16T03:32:43.118Z,4.60
2022-11-16T03:35:22.098Z,4.65
2022-11-16T03:37:53.106Z,4.70
2022-11-16T03:40:24.185Z,5.47
2022-11-16T03:42:52.768Z,5.60
2022-11-16T03:45:21.108Z,3.97
2022-11-16T03:47:50.496Z,6.30
2022-11-16T03:50:18.181Z,4.25
2022-11-16T03:52:45.958Z,4.38
2022-11-16T03:55:14.951Z,4.20
2022-11-16T04:02:12.400Z,6.03
2022-11-16T04:04:58.401Z,4.25
2022-11-16T04:07:44.266Z,5.28
2022-11-16T04:10:32.395Z,4.20
2022-11-16T04:13:20.287Z,13.15
2022-11-16T04:16:07.649Z,16.65
2022-11-16T04:19:37.977Z,16.58
2022-11-16T04:22:38.683Z,14.98
2022-11-16T04:25:13.063Z,11.10
2022-11-16T04:28:01.333Z,12.38
2022-11-16T04:30:51.751Z,12.50
2022-11-16T04:33:41.057Z,10.15
2022-11-16T04:36:31.658Z,9.30
2022-11-16T04:39:02.965Z,10.43
2022-11-16T04:41:52.788Z,7.60
2022-11-16T04:44:22.847Z,8.18
2022-11-16T04:47:08.486Z,7.78
2022-11-16T04:49:38.607Z,8.55
2022-11-16T04:52:08.877Z,7.78
2022-11-16T04:54:38.685Z,9.85
2022-11-16T04:57:09.033Z,7.80
2022-11-16T04:59:36.530Z,5.78
2022-11-16T05:02:10.186Z,7.03
2022-11-16T05:04:46.550Z,8.75
2022-11-16T05:07:16.628Z,4.88
2022-11-16T05:09:47.949Z,8.07
2022-11-16T05:12:25.405Z,9.15
2022-11-16T05:15:06.504Z,5.30
2022-11-16T05:17:36.698Z,5.78
2022-11-16T05:20:28.514Z,5.18
2022-11-16T05:23:01.321Z,4.90
2022-11-16T05:25:36.468Z,5.18
2022-11-16T05:28:09.403Z,10.63
2022-11-16T05:30:45.842Z,6.60
2022-11-16T05:33:18.640Z,4.70
2022-11-16T05:35:50.857Z,4.55
2022-11-16T05:38:20.017Z,4.35
2022-11-16T05:40:51.730Z,5.22
2022-11-16T05:43:19.195Z,5.53
2022-11-16T05:45:57.040Z,4.80
2022-11-16T05:48:27.409Z,4.03
2022-11-16T05:50:59.524Z,4.07
2022-11-16T05:53:31.085Z,4.93
2022-11-16T05:56:00.283Z,5.47
2022-11-16T05:58:28.941Z,5.50
2022-11-16T06:00:58.597Z,3.97
2022-11-16T06:03:31.067Z,4.13
2022-11-16T06:06:00.214Z,4.32
2022-11-16T06:08:30.599Z,4.43
2022-11-16T06:11:05.855Z,7.63
2022-11-16T06:13:36.582Z,3.58
2022-11-16T06:16:05.498Z,3.90
2022-11-16T06:18:43.845Z,4.13
2022-11-16T06:21:13.096Z,4.90
2022-11-16T06:23:44.135Z,4.32
2022-11-16T06:26:12.074Z,4.70
2022-11-16T06:28:40.639Z,3.33
2022-11-16T06:31:08.356Z,4.00
2022-11-16T06:33:40.589Z,5.53
2022-11-16T06:36:15.915Z,6.15
2022-11-16T06:38:48.871Z,3.97
2022-11-16T06:41:17.075Z,5.35
2022-11-16T06:43:48.442Z,6.35
2022-11-16T06:46:20.234Z,5.70
2022-11-16T06:49:19.396Z,5.75
2022-11-16T06:51:49.780Z,4.78
2022-11-16T06:54:48.712Z,4.28
2022-11-16T06:57:16.859Z,4.13
2022-11-16T06:59:45.276Z,6.80
2022-11-16T07:02:23.322Z,4.65
2022-11-16T07:04:51.923Z,5.38
2022-11-16T07:07:21.002Z,3.58
2022-11-16T07:09:51.013Z,4.45
2022-11-16T07:12:21.732Z,3.60
2022-11-16T07:14:51.167Z,4.35
2022-11-16T07:17:20.750Z,7.55
2022-11-16T07:19:52.508Z,5.72
2022-11-16T07:22:26.244Z,5.75
2022-11-16T07:24:58.538Z,6.15
2022-11-16T07:27:31.239Z,4.78
2022-11-16T07:30:19.096Z,4.25
2022-11-16T07:33:00.027Z,5.85
2022-11-16T07:35:47.465Z,4.20
2022-11-16T07:38:19.737Z,4.63
2022-11-16T07:40:49.678Z,3.70
2022-11-16T07:43:21.031Z,4.65
2022-11-16T07:49:37.091Z,6.55
2022-11-16T07:53:07.842Z,3.95
2022-11-16T07:55:54.105Z,7.05
2022-11-16T08:01:22.443Z,4.50
2022-11-16T08:03:59.076Z,3.38
2022-11-16T08:06:33.221Z,3.63
2022-11-16T08:09:04.934Z,2.72
2022-11-16T08:14:09.749Z,5.30
2022-11-16T08:16:39.860Z,2.58
2022-11-16T08:19:15.454Z,3.90
2022-11-16T08:21:52.526Z,3.33
2022-11-16T08:25:49.603Z,3.67
2022-11-16T08:32:16.460Z,2.20
2022-11-16T08:34:45.655Z,3.30
2022-11-16T08:37:41.794Z,3.55
2022-11-16T08:40:49.129Z,1.98
2022-11-16T08:43:23.173Z,3.17
2022-11-16T08:45:53.441Z,2.47
2022-11-16T08:48:21.246Z,3.13
2022-11-16T08:51:15.818Z,4.78
2022-11-16T08:53:44.448Z,2.85
2022-11-16T08:56:15.238Z,4.85
2022-11-16T08:58:53.845Z,4.78
2022-11-16T09:01:27.912Z,3.58
2022-11-16T09:03:56.551Z,3.45
2022-11-16T09:06:26.109Z,3.15
2022-11-16T09:08:56.509Z,2.88
2022-11-16T09:11:52.614Z,3.08
2022-11-16T09:14:20.040Z,1.75
2022-11-16T09:16:48.201Z,2.58
2022-11-16T09:19:19.513Z,2.08
2022-11-16T09:21:48.604Z,2.25
2022-11-16T09:24:16.236Z,2.50
2022-11-16T09:26:46.789Z,2.13
2022-11-16T09:29:16.361Z,3.25
2022-11-16T09:31:45.015Z,3.00
2022-11-16T09:34:15.889Z,3.08
2022-11-16T09:36:44.469Z,3.20
2022-11-16T09:39:30.092Z,3.03
2022-11-16T09:42:28.704Z,3.28
2022-11-16T09:45:00.399Z,2.58
2022-11-16T09:47:51.785Z,3.50
2022-11-16T09:50:34.986Z,4.05
2022-11-16T09:56:04.879Z,6.30
2022-11-16T09:59:20.083Z,4.40
2022-11-16T10:01:55.310Z,5.00
2022-11-16T10:04:38.614Z,3.75
2022-11-16T10:07:16.633Z,4.55
2022-11-16T10:09:45.235Z,4.60
2022-11-16T10:12:18.264Z,4.72
2022-11-16T10:17:38.489Z,3.78
2022-11-16T10:20:32.441Z,2.85
2022-11-16T10:23:34.271Z,5.93
2022-11-16T10:26:17.986Z,2.50
2022-11-16T10:28:52.008Z,4.00
2022-11-16T10:32:02.624Z,2.50
2022-11-16T10:34:42.670Z,2.97
2022-11-16T10:37:13.250Z,2.40
2022-11-16T10:39:41.366Z,3.90
2022-11-16T10:42:18.808Z,3.65
2022-11-16T10:44:55.778Z,3.88
2022-11-16T10:47:34.950Z,4.00
2022-11-16T10:50:25.326Z,4.60
2022-11-16T10:52:52.801Z,7.95
2022-11-16T10:55:22.613Z,4.80
2022-11-16T10:57:58.873Z,3.60
2022-11-16T11:00:44.687Z,4.18
2022-11-16T11:03:12.721Z,3.38
2022-11-16T11:05:52.731Z,3.63
2022-11-16T11:08:31.432Z,3.92
2022-11-16T11:14:14.163Z,2.75
2022-11-16T11:16:42.334Z,6.68
2022-11-16T11:19:25.763Z,7.53
2022-11-16T11:21:59.889Z,6.32
2022-11-16T11:24:43.822Z,7.65
2022-11-16T11:27:12.316Z,10.43
2022-11-16T11:29:43.019Z,5.10
2022-11-16T11:32:20.797Z,6.75
2022-11-16T11:34:53.942Z,6.57
2022-11-16T11:37:26.300Z,5.30
2022-11-16T11:40:07.538Z,5.23
2022-11-16T11:42:34.997Z,3.60
2022-11-16T11:45:09.517Z,3.55
2022-11-16T11:48:00.019Z,2.55
2022-11-16T11:50:37.921Z,3.35
2022-11-16T11:53:19.020Z,3.55
2022-11-16T11:55:46.453Z,3.65
2022-11-16T11:58:19.798Z,3.63
2022-11-16T12:01:04.218Z,4.78
2022-11-16T12:04:04.480Z,4.47
2022-11-16T12:07:13.558Z,4.28
2022-11-16T12:10:00.277Z,3.65
2022-11-16T12:12:36.754Z,2.58
2022-11-16T12:15:13.622Z,2.30
2022-11-16T12:17:49.927Z,3.40
2022-11-16T12:20:29.376Z,2.13
2022-11-16T12:23:30.400Z,4.30
2022-11-16T12:26:08.826Z,3.35
2022-11-16T12:28:51.250Z,2.17
2022-11-16T12:31:30.119Z,11.63
2022-11-16T12:34:27.030Z,6.60
2022-11-16T12:37:35.359Z,4.38
2022-11-16T12:40:36.607Z,3.63
2022-11-16T12:43:28.370Z,3.83
2022-11-16T12:46:11.776Z,3.97
2022-11-16T12:51:31.554Z,6.38
2022-11-16T12:54:02.734Z,3.47
2022-11-16T12:56:48.511Z,3.30
2022-11-16T12:59:20.964Z,4.50
2022-11-16T13:02:23.452Z,2.95
2022-11-16T13:09:09.564Z,4.07
2022-11-16T13:11:48.164Z,2.97
2022-11-16T13:14:39.503Z,2.90
2022-11-16T13:17:07.982Z,3.00
2022-11-16T13:19:45.959Z,3.22
2022-11-16T13:22:22.720Z,7.70
2022-11-16T13:25:14.478Z,2.63
2022-11-16T13:32:22.771Z,3.47
2022-11-16T13:35:01.626Z,2.50
2022-11-16T13:37:49.199Z,5.28
2022-11-16T13:40:37.272Z,3.60
2022-11-16T13:43:22.723Z,4.45
2022-11-16T13:45:54.124Z,3.97
2022-11-16T13:48:35.531Z,4.85
2022-11-16T13:51:17.636Z,3.30
2022-11-16T13:54:43.063Z,3.58
2022-11-16T13:56:55.324Z,5.65
2022-11-16T13:59:34.769Z,4.28
2022-11-16T14:02:42.875Z,2.58
2022-11-16T14:05:13.598Z,3.88
2022-11-16T14:07:50.209Z,2.85
2022-11-16T14:10:33.223Z,7.25
2022-11-16T14:13:05.100Z,3.70
2022-11-16T14:15:38.141Z,4.78
2022-11-16T14:20:37.805Z,4.32
2022-11-16T14:23:19.714Z,5.03
2022-11-16T14:25:50.925Z,1.70
2022-11-16T14:36:09.924Z,3.35
2022-11-16T14:38:40.183Z,1.52
2022-11-16T14:45:04.897Z,3.03
2022-11-16T14:48:27.371Z,2.60
2022-11-16T14:52:09.634Z,3.33
2022-11-16T14:55:00.296Z,3.63
2022-11-16T14:57:32.504Z,2.47
2022-11-16T15:00:13.055Z,2.07
2022-11-16T15:02:41.099Z,4.13
2022-11-16T15:05:22.519Z,4.25
2022-11-16T15:07:53.647Z,1.98
2022-11-16T15:10:30.514Z,3.10
2022-11-16T15:12:59.043Z,1.90
2022-11-16T15:15:31.922Z,3.63
2022-11-16T15:17:59.427Z,2.40
2022-11-16T15:20:32.569Z,2.65
2022-11-16T15:23:32.372Z,2.83
2022-11-16T15:26:09.459Z,3.08
2022-11-16T15:28:55.849Z,3.22
2022-11-16T15:31:36.649Z,2.80
2022-11-16T15:34:04.505Z,3.45
2022-11-16T15:36:38.645Z,2.63
2022-11-16T15:39:14.900Z,3.35
2022-11-16T15:41:42.891Z,2.90
2022-11-16T15:44:16.424Z,3.22
2022-11-16T15:46:50.542Z,4.00
2022-11-16T15:49:40.800Z,3.28
2022-11-16T15:52:08.416Z,5.80
2022-11-16T15:54:55.310Z,4.45
2022-11-16T15:57:24.447Z,2.28
2022-11-16T15:59:57.488Z,3.03
2022-11-16T16:02:30.860Z,2.83
2022-11-16T16:04:58.588Z,7.28
2022-11-16T16:07:41.572Z,8.30
2022-11-16T16:10:27.608Z,4.07
2022-11-16T16:13:01.416Z,6.10
2022-11-16T16:15:36.782Z,4.07
2022-11-16T16:18:36.874Z,2.63
2022-11-16T16:21:04.378Z,3.80
2022-11-16T16:23:32.131Z,3.63
2022-11-16T16:26:04.020Z,3.30
2022-11-16T16:28:35.180Z,3.47
2022-11-16T16:31:04.210Z,3.10
2022-11-16T16:33:32.320Z,3.33
2022-11-16T16:35:59.947Z,5.03
2022-11-16T16:38:27.866Z,3.55
2022-11-16T16:41:03.781Z,6.00
2022-11-16T16:43:34.726Z,4.38
2022-11-16T16:46:03.722Z,7.88
2022-11-16T16:48:31.261Z,3.83
2022-11-16T16:51:01.847Z,4.05
2022-11-16T16:53:32.129Z,4.68
2022-11-16T16:56:01.078Z,5.40
2022-11-16T16:58:30.678Z,5.82
2022-11-16T17:01:01.365Z,5.57
2022-11-16T17:03:30.940Z,5.75
2022-11-16T17:06:02.646Z,4.93
2022-11-16T17:08:39.554Z,5.05
2022-11-16T17:11:07.095Z,7.07
2022-11-16T17:13:35.094Z,9.10
2022-11-16T17:16:05.304Z,8.18
2022-11-16T17:18:39.776Z,9.63
2022-11-16T17:21:09.201Z,8.50
2022-11-16T17:24:03.907Z,7.30
2022-11-16T17:26:33.437Z,9.82
2022-11-16T17:29:06.000Z,7.60
2022-11-16T17:31:34.800Z,8.20
2022-11-16T17:34:02.444Z,8.82
2022-11-16T17:36:31.918Z,7.60
2022-11-16T17:38:59.345Z,11.00
2022-11-16T17:41:33.536Z,12.27
2022-11-16T17:44:01.027Z,13.45
2022-11-16T17:46:29.174Z,18.00
2022-11-16T17:48:57.083Z,14.38
2022-11-16T17:51:26.074Z,11.93
2022-11-16T17:53:59.009Z,12.68
2022-11-16T17:56:27.918Z,11.23
2022-11-16T17:59:00.180Z,10.10
2022-11-16T18:01:28.478Z,14.90
2022-11-16T18:03:56.439Z,11.68
2022-11-16T18:06:25.458Z,8.90
2022-11-16T18:08:55.190Z,11.77
2022-11-16T18:11:30.009Z,10.70
2022-11-16T18:14:01.263Z,10.45
2022-11-16T18:16:32.891Z,9.25
2022-11-16T18:19:03.854Z,9.60
2022-11-16T18:21:33.750Z,8.00
2022-11-16T18:24:01.443Z,7.95
2022-11-16T18:26:29.059Z,7.88
2022-11-16T18:31:57.959Z,8.07
2022-11-16T18:34:25.403Z,10.68
2022-11-16T18:36:58.927Z,7.30
2022-11-16T18:39:27.406Z,9.65
2022-11-16T18:41:56.065Z,7.25
2022-11-16T18:44:24.948Z,9.00
2022-11-16T18:46:52.363Z,8.10
2022-11-16T18:49:22.215Z,8.40
2022-11-16T18:51:49.847Z,7.43
2022-11-16T18:54:17.216Z,7.53
2022-11-16T18:56:47.814Z,8.90
2022-11-16T18:59:15.295Z,6.50
2022-11-16T19:01:46.290Z,8.18
2022-11-16T19:04:14.207Z,7.68
2022-11-16T19:06:41.539Z,8.23
2022-11-16T19:09:11.419Z,6.03
2022-11-16T19:11:41.394Z,7.93
2022-11-16T19:14:09.268Z,7.18
2022-11-16T19:16:36.931Z,7.40
2022-11-16T19:19:05.051Z,6.30
2022-11-16T19:21:32.488Z,6.25
2022-11-16T19:24:02.511Z,6.60
2022-11-16T19:26:35.757Z,9.10
2022-11-16T19:29:04.326Z,6.00
2022-11-16T19:31:32.878Z,5.32
2022-11-16T19:34:07.560Z,5.32
2022-11-16T19:36:37.253Z,6.85
2022-11-16T19:39:06.842Z,5.82
2022-11-16T19:41:38.677Z,5.45
2022-11-16T19:44:09.977Z,6.07
2022-11-16T19:46:37.345Z,8.30
2022-11-16T19:49:05.463Z,6.00
2022-11-16T19:51:35.364Z,6.22
2022-11-16T19:54:03.620Z,6.10
2022-11-16T19:56:31.538Z,6.65
2022-11-16T19:58:58.895Z,6.50
2022-11-16T20:01:29.215Z,7.43
2022-11-16T20:04:02.341Z,5.53
2022-11-16T20:06:35.176Z,5.22
2022-11-16T20:09:12.212Z,5.20
2022-11-16T20:11:41.698Z,6.75
2022-11-16T20:14:13.779Z,5.72
2022-11-16T20:16:43.861Z,5.20
2022-11-16T20:19:11.380Z,5.03
2022-11-16T20:21:40.955Z,5.93
2022-11-16T20:24:12.472Z,5.57
2022-11-16T20:26:44.046Z,9.13
2022-11-16T20:29:13.048Z,6.38
2022-11-16T20:31:46.144Z,6.43
2022-11-16T20:34:18.544Z,6.55
2022-11-16T20:36:47.396Z,6.33
2022-11-16T20:39:19.849Z,5.75
2022-11-16T20:41:48.158Z,6.53
2022-11-16T20:44:22.555Z,5.57
2022-11-16T20:46:54.361Z,5.05
2022-11-16T20:49:28.923Z,5.70
2022-11-16T20:51:56.364Z,4.88
2022-11-16T20:54:24.496Z,4.78
2022-11-16T20:56:52.003Z,5.35
2022-11-16T20:59:19.543Z,5.57
2022-11-16T21:01:52.436Z,4.10
2022-11-16T21:07:03.211Z,4.45
2022-11-16T21:09:52.098Z,5.72
2022-11-16T21:12:42.797Z,5.68
2022-11-16T21:15:12.602Z,4.15
2022-11-16T21:17:40.083Z,6.28
2022-11-16T21:20:27.126Z,7.55
2022-11-16T21:22:57.969Z,4.93
2022-11-16T21:25:27.873Z,6.32
2022-11-16T21:27:57.056Z,4.97
2022-11-16T21:30:24.454Z,5.72
2022-11-16T21:32:54.792Z,5.22
2022-11-16T21:35:23.621Z,5.10
2022-11-16T21:37:52.462Z,4.82
2022-11-16T21:40:20.245Z,5.18
2022-11-16T21:42:48.988Z,6.90
2022-11-16T21:45:16.642Z,4.65
2022-11-16T21:47:44.367Z,5.25
2022-11-16T21:50:31.110Z,5.13
2022-11-16T21:53:05.398Z,5.85
2022-11-16T21:55:36.444Z,5.22
2022-11-16T21:58:05.495Z,5.03
2022-11-16T22:00:34.022Z,5.88
2022-11-16T22:03:05.874Z,4.70
2022-11-16T22:05:58.460Z,5.47
2022-11-16T22:08:31.135Z,5.75
2022-11-16T22:10:59.908Z,6.43
2022-11-16T22:13:29.350Z,5.03
2022-11-16T22:16:15.175Z,4.30
2022-11-16T22:19:10.302Z,4.90
2022-11-16T22:21:39.711Z,3.88
2022-11-16T22:24:09.857Z,5.85
2022-11-16T22:26:41.136Z,5.25
2022-11-16T22:29:11.081Z,5.00
2022-11-16T22:31:38.732Z,4.20
2022-11-16T22:34:08.322Z,5.28
2022-11-16T22:36:35.853Z,5.88
2022-11-16T22:39:03.549Z,4.60
2022-11-16T22:41:31.256Z,5.15
2022-11-16T22:43:58.733Z,4.68
2022-11-16T22:46:26.158Z,4.88
2022-11-16T22:48:53.724Z,4.25
2022-11-16T22:51:26.535Z,4.22
2022-11-16T22:53:55.601Z,4.72
2022-11-16T22:56:28.060Z,5.55
2022-11-16T22:58:55.856Z,4.35
2022-11-16T23:01:23.770Z,5.05
2022-11-16T23:03:51.513Z,4.57
2022-11-16T23:06:19.196Z,4.70
2022-11-16T23:08:47.570Z,4.65
2022-11-16T23:11:39.626Z,3.95
2022-11-16T23:14:31.559Z,3.85
2022-11-16T23:16:59.830Z,4.40
2022-11-16T23:19:49.312Z,4.25
2022-11-16T23:22:38.032Z,4.45
2022-11-16T23:25:30.187Z,4.78
2022-11-16T23:28:24.120Z,4.70
2022-11-16T23:30:51.469Z,5.50
2022-11-16T23:33:40.275Z,4.20
2022-11-16T23:36:08.020Z,4.13
2022-11-16T23:38:35.719Z,4.55
2022-11-16T23:41:24.520Z,4.13
2022-11-16T23:44:02.231Z,4.05
2022-11-16T23:46:32.136Z,4.15
2022-11-16T23:49:04.341Z,4.22
2022-11-16T23:51:31.658Z,4.13
2022-11-16T23:53:59.185Z,3.95
2022-11-16T23:56:29.136Z,5.10
2022-11-16T23:58:59.419Z,4.45
